Flight Track Log - Related Links

Times and Time Zones

All times are in EDT time to prevent confusion due to time zone crossing. See the N76RP flight status page for this flight to view local times or setup timezone preferences in your user account.

Time Position Orientation Groundspeed Altitude Reporting Facility
EDT Latitude Longitude Course Direction KTS MPH feet Rate Location/Type
Fri 04:08:06 PM 40.8167 -74.1333 75° East 208 239 1,500  Level New York TRACON
Fri 04:09:06 PM 40.8000 -74.2167 255° West 238 274 3,100 1,550 Climbing New York TRACON
Fri 04:10:06 PM 40.8000 -74.3167 270° West 277 319 4,600 1,450 Climbing New York TRACON
Fri 04:11:06 PM 40.8667 -74.3167 360° North 292 336 6,000 700 Climbing New York TRACON
Fri 04:12:06 PM 40.9500 -74.2833 17° North 294 338 6,000  Level New York TRACON
Fri 04:13:00 PM 41.1513 -74.1268 75° East  Level FlightAware Approximate
Fri 04:13:06 PM 41.0167 -74.2333 30° Northeast 292 336 6,000  Level New York TRACON
Fri 04:14:06 PM 41.0833 -74.1833 29° Northeast 294 338 6,000  Level New York TRACON
Fri 04:15:06 PM 41.1500 -74.1333 29° Northeast 300 345 6,000 -200 Level New York TRACON
Fri 04:16:06 PM 41.1833 -74.0167 69° East 307 353 5,600 -500 Descending New York TRACON
Fri 04:17:06 PM 41.2000 -73.9167 77° East 301 346 5,000 -300 Descending New York TRACON
Fri 04:18:06 PM 41.2333 -73.8000 69° East 303 349 5,000  Level New York TRACON
Fri 04:19:06 PM 41.2500 -73.7000 77° East 301 346 5,000  Level New York TRACON
Fri 04:20:06 PM 41.2833 -73.6000 66° East 301 346 5,000  Level New York TRACON
Fri 04:21:06 PM 41.2667 -73.4833 101° East 295 339 5,000  Level New York TRACON
Fri 04:22:06 PM 41.2500 -73.3833 102° East 295 339 5,000 -421 Level New York TRACON
Fri 04:23:00 PM 41.2500 -73.2833 90° East 298 343 4,200 -889 Descending New York TRACON
Fri 04:24:00 PM 41.2287 -73.2194 114° Southeast  Level FlightAware Approximate
Fri 04:31:00 PM 40.9625 -73.0807 220° Southwest  Level FlightAware Approximate
Fri 04:32:00 PM 40.9222 -73.1254 220° Southwest  Level FlightAware Approximate
Fri 04:33:00 PM 40.8815 -73.1692 225° Southwest  Level FlightAware Approximate
Fri 04:34:00 PM 40.8444 -73.2186 225° Southwest  Level FlightAware Approximate
Fri 04:35:00 PM 40.8140 -73.2693 217° Southwest  Level FlightAware Approximate
Fri 04:36:00 PM 40.7721 -73.3112 217° Southwest  Level FlightAware Approximate
Fri 04:37:00 PM 40.7419 -73.3621 229° Southwest  Level FlightAware Approximate
Fri 04:38:00 PM 40.7167 -73.4000 229° Southwest  Level FlightAware Approximate
Fri 04:39:00 PM 40.7288 -73.4134 229° Southwest  Level Estimated
Fri 04:40:00 PM 40.7288 -73.4134 229° Southwest  Level Estimated
Fri 04:41:00 PM 40.7288 -73.4134 229° Southwest  Level Estimated
Fri 04:42:00 PM 40.7288 -73.4134 229° Southwest  Level Estimated
Fri 04:43:00 PM 40.7288 -73.4134 229° Southwest  Level Estimated
Fri 04:44:00 PM 40.7288 -73.4134 229° Southwest  Level Estimated
Fri 04:45:00 PM 40.7288 -73.4134 229° Southwest  Level Estimated
Fri 04:46:00 PM 40.7288 -73.4134 229° Southwest  Level Estimated
Fri 04:47:00 PM 40.7288 -73.4134 229° Southwest  Level Estimated
Fri 04:48:00 PM 40.7288 -73.4134 229° Southwest  Level Estimated
Fri 04:49:00 PM 40.7288 -73.4134 229° Southwest  Level Estimated
Fri 04:50:00 PM 40.7288 -73.4134 229° Southwest  Level Estimated
Fri 04:51:00 PM 40.7288 -73.4134 229° Southwest  Level Estimated
Fri 04:52:00 PM 40.7288 -73.4134 229° Southwest  Level Estimated
Fri 04:53:00 PM 40.7288 -73.4134 229° Southwest  Level Estimated
Fri 04:54:00 PM 40.7288 -73.4134 229° Southwest  Level Estimated
Fri 04:55:00 PM 40.7288 -73.4134 229° Southwest  Level Estimated
Fri 04:56:00 PM 40.7288 -73.4134 229° Southwest  Level Estimated

Login

Don't have an account? Register now (free) for customized features, flight alerts, and more!